createdAt,value
2018-11-11T00:00:00.265Z,0
2018-11-11T00:01:00.503Z,0
2018-11-11T00:02:00.492Z,0
2018-11-11T00:03:00.482Z,0
2018-11-11T00:04:00.462Z,0
2018-11-11T00:05:00.457Z,0
2018-11-11T00:06:00.185Z,0
2018-11-11T00:06:59.908Z,0
2018-11-11T00:08:00.413Z,0
2018-11-11T00:09:00.407Z,0
2018-11-11T00:10:00.391Z,0
2018-11-11T00:11:00.352Z,0
2018-11-11T00:12:00.097Z,0
2018-11-11T00:13:00.330Z,0
2018-11-11T00:14:00.054Z,0
2018-11-11T00:14:59.794Z,0
2018-11-11T00:15:59.779Z,0
2018-11-11T00:17:00.290Z,0
2018-11-11T00:18:00.251Z,0
2018-11-11T00:19:00.235Z,0
2018-11-11T00:20:00.225Z,0
2018-11-11T00:21:00.256Z,0
2018-11-11T00:22:00.548Z,0
2018-11-11T00:22:59.934Z,0
2018-11-11T00:23:59.662Z,0
2018-11-11T00:25:00.175Z,0
2018-11-11T00:25:59.635Z,0
2018-11-11T00:27:00.139Z,0
2018-11-11T00:27:59.858Z,0
2018-11-11T00:29:00.096Z,0
2018-11-11T00:30:00.082Z,0
2018-11-11T00:31:00.069Z,0
2018-11-11T00:31:59.795Z,0
2018-11-11T00:32:59.792Z,0
2018-11-11T00:33:59.771Z,0
2018-11-11T00:35:00.004Z,0
2018-11-11T00:35:59.996Z,0
2018-11-11T00:36:59.968Z,0
2018-11-11T00:37:59.958Z,0
2018-11-11T00:38:59.981Z,0
2018-11-11T00:39:59.676Z,0
2018-11-11T00:40:59.932Z,0
2018-11-11T00:41:59.904Z,0
2018-11-11T00:42:59.886Z,0
2018-11-11T00:43:59.875Z,0
2018-11-11T00:44:59.867Z,0
2018-11-11T00:45:59.340Z,0
2018-11-11T00:46:59.588Z,0
2018-11-11T00:47:59.817Z,0
2018-11-11T00:48:59.801Z,0
2018-11-11T00:49:59.281Z,0
2018-11-11T00:50:59.772Z,0
2018-11-11T00:51:59.506Z,0
2018-11-11T00:52:59.743Z,0
2018-11-11T00:53:59.474Z,0
2018-11-11T00:54:59.462Z,0
2018-11-11T00:55:59.442Z,0
2018-11-11T00:56:59.182Z,0
2018-11-11T00:57:59.670Z,0
2018-11-11T00:58:59.658Z,0
2018-11-11T00:59:59.664Z,0
2018-11-11T01:00:59.646Z,0
2018-11-11T01:01:59.361Z,0
2018-11-11T01:02:59.353Z,0
2018-11-11T01:03:59.332Z,0
2018-11-11T01:04:59.572Z,0
2018-11-11T01:05:59.298Z,0
2018-11-11T01:06:59.294Z,0
2018-11-11T01:07:59.279Z,0
2018-11-11T01:08:59.509Z,0
2018-11-11T01:09:59.037Z,0
2018-11-11T01:10:59.484Z,0
2018-11-11T01:11:59.239Z,0
2018-11-11T01:12:59.203Z,0
2018-11-11T01:13:59.191Z,0
2018-11-11T01:14:58.928Z,0
2018-11-11T01:15:59.158Z,0
2018-11-11T01:16:59.399Z,0
2018-11-11T01:17:59.384Z,0
2018-11-11T01:18:59.378Z,0
2018-11-11T01:19:58.847Z,0
2018-11-11T01:20:59.092Z,0
2018-11-11T01:21:58.821Z,0
2018-11-11T01:22:59.062Z,0
2018-11-11T01:23:59.043Z,0
2018-11-11T01:24:59.285Z,0
2018-11-11T01:25:58.762Z,0
2018-11-11T01:26:59.008Z,0
2018-11-11T01:27:59.240Z,0
2018-11-11T01:28:58.971Z,0
2018-11-11T01:29:59.214Z,0
2018-11-11T01:30:58.943Z,0
2018-11-11T01:31:59.187Z,0
2018-11-11T01:32:58.917Z,0
2018-11-11T01:33:58.904Z,0
2018-11-11T01:34:58.899Z,0
2018-11-11T01:35:59.128Z,0
2018-11-11T01:36:59.115Z,0
2018-11-11T01:37:58.843Z,0
2018-11-11T01:38:58.578Z,0
2018-11-11T01:39:59.084Z,0
2018-11-11T01:40:58.551Z,0
2018-11-11T01:41:59.058Z,0
2018-11-11T01:42:59.030Z,0
2018-11-11T01:43:59.061Z,0
2018-11-11T01:44:58.749Z,0
2018-11-11T01:45:58.986Z,0
2018-11-11T01:46:58.981Z,0
2018-11-11T01:47:58.972Z,0
2018-11-11T01:48:58.942Z,0
2018-11-11T01:49:58.680Z,0
2018-11-11T01:50:58.658Z,0
2018-11-11T01:51:58.905Z,0
2018-11-11T01:52:58.888Z,0
2018-11-11T01:53:58.625Z,0
2018-11-11T01:54:58.860Z,0
2018-11-11T01:55:58.846Z,0
2018-11-11T01:56:58.578Z,0
2018-11-11T01:57:58.572Z,0
2018-11-11T01:58:58.552Z,0
2018-11-11T01:59:58.786Z,0
2018-11-11T02:00:58.769Z,0
2018-11-11T02:01:58.508Z,0
2018-11-11T02:02:58.750Z,0
2018-11-11T02:03:58.735Z,0
2018-11-11T02:04:58.720Z,0
2018-11-11T02:05:58.212Z,0
2018-11-11T02:06:58.189Z,0
2018-11-11T02:07:58.672Z,0
2018-11-11T02:08:58.157Z,0
2018-11-11T02:09:58.791Z,0
2018-11-11T02:10:58.639Z,0
2018-11-11T02:11:58.626Z,0
2018-11-11T02:12:58.607Z,0
2018-11-11T02:13:58.594Z,0
2018-11-11T02:14:58.320Z,0
2018-11-11T02:15:58.562Z,0
2018-11-11T02:16:58.550Z,0
2018-11-11T02:17:58.531Z,0
2018-11-11T02:18:58.264Z,0
2018-11-11T02:19:58.512Z,0
2018-11-11T02:20:58.716Z,0
2018-11-11T02:21:58.496Z,0
2018-11-11T02:22:58.217Z,0
2018-11-11T02:23:58.203Z,0
2018-11-11T02:24:58.433Z,0
2018-11-11T02:25:58.419Z,0
2018-11-11T02:26:58.415Z,0
2018-11-11T02:27:58.151Z,0
2018-11-11T02:28:58.135Z,0
2018-11-11T02:29:58.370Z,0
2018-11-11T02:30:57.870Z,0
2018-11-11T02:31:58.358Z,0
2018-11-11T02:32:58.330Z,0
2018-11-11T02:33:58.060Z,0
2018-11-11T02:34:58.297Z,0
2018-11-11T02:35:58.287Z,0
2018-11-11T02:36:58.015Z,0
2018-11-11T02:37:57.817Z,0
2018-11-11T02:38:58.244Z,0
2018-11-11T02:39:58.225Z,0
2018-11-11T02:40:58.216Z,0
2018-11-11T02:41:57.962Z,0
2018-11-11T02:42:58.199Z,0
2018-11-11T02:43:57.930Z,0
2018-11-11T02:44:58.168Z,0
2018-11-11T02:45:58.165Z,0
2018-11-11T02:46:57.887Z,0
2018-11-11T02:47:57.899Z,0
2018-11-11T02:48:57.851Z,0
2018-11-11T02:49:57.841Z,0
2018-11-11T02:50:58.091Z,0
2018-11-11T02:51:58.073Z,0
2018-11-11T02:52:57.796Z,0
2018-11-11T02:53:57.534Z,0
2018-11-11T02:54:58.033Z,0
2018-11-11T02:55:57.504Z,0
2018-11-11T02:56:57.497Z,0
2018-11-11T02:57:57.980Z,0
2018-11-11T02:58:57.716Z,0
2018-11-11T02:59:58.001Z,0
2018-11-11T03:00:57.695Z,0
2018-11-11T03:01:57.680Z,0
2018-11-11T03:02:57.969Z,0
2018-11-11T03:03:57.913Z,0
2018-11-11T03:04:57.634Z,0
2018-11-11T03:05:57.871Z,0
2018-11-11T03:06:57.353Z,0
2018-11-11T03:07:57.854Z,0
2018-11-11T03:08:57.592Z,0
2018-11-11T03:09:57.818Z,0
2018-11-11T03:10:57.555Z,0
2018-11-11T03:11:57.799Z,0
2018-11-11T03:12:57.774Z,0
2018-11-11T03:13:57.766Z,0
2018-11-11T03:14:57.783Z,0
2018-11-11T03:15:57.486Z,0
2018-11-11T03:16:57.466Z,0
2018-11-11T03:17:57.712Z,0
2018-11-11T03:18:57.708Z,0
2018-11-11T03:19:57.688Z,0
2018-11-11T03:20:57.675Z,0
2018-11-11T03:21:57.401Z,0
2018-11-11T03:22:57.656Z,0
2018-11-11T03:23:57.640Z,0
2018-11-11T03:24:57.616Z,0
2018-11-11T03:25:57.100Z,0
2018-11-11T03:26:57.591Z,0
2018-11-11T03:27:57.329Z,0
2018-11-11T03:28:57.560Z,0
2018-11-11T03:29:57.545Z,0
2018-11-11T03:30:57.547Z,0
2018-11-11T03:31:57.658Z,0
2018-11-11T03:32:57.010Z,0
2018-11-11T03:33:57.243Z,0
2018-11-11T03:34:57.227Z,0
2018-11-11T03:35:57.472Z,0
2018-11-11T03:36:57.458Z,0
2018-11-11T03:37:57.193Z,0
2018-11-11T03:38:57.432Z,0
2018-11-11T03:39:57.163Z,0
2018-11-11T03:40:57.152Z,0
2018-11-11T03:41:56.882Z,0
2018-11-11T03:42:57.379Z,0
2018-11-11T03:43:57.368Z,0
2018-11-11T03:44:57.371Z,0
2018-11-11T03:45:56.836Z,0
2018-11-11T03:46:57.326Z,0
2018-11-11T03:47:57.067Z,0
2018-11-11T03:48:56.791Z,0
2018-11-11T03:49:57.289Z,0
2018-11-11T03:50:57.275Z,0
2018-11-11T03:51:56.753Z,0
2018-11-11T03:52:57.244Z,0
2018-11-11T03:53:56.735Z,0
2018-11-11T03:54:57.247Z,0
2018-11-11T03:55:57.207Z,0
2018-11-11T03:56:56.951Z,0
2018-11-11T03:57:56.927Z,0
2018-11-11T03:58:57.682Z,0
2018-11-11T03:59:56.908Z,0
2018-11-11T04:00:57.138Z,0
2018-11-11T04:01:56.879Z,0
2018-11-11T04:02:56.858Z,0
2018-11-11T04:03:57.105Z,0
2018-11-11T04:04:56.829Z,0
2018-11-11T04:05:56.820Z,0
2018-11-11T04:06:57.078Z,0
2018-11-11T04:07:57.043Z,0
2018-11-11T04:08:57.060Z,0
2018-11-11T04:09:56.780Z,0
2018-11-11T04:10:57.021Z,0
2018-11-11T04:11:56.992Z,0
2018-11-11T04:12:56.981Z,0
2018-11-11T04:13:56.713Z,0
2018-11-11T04:14:56.951Z,0
2018-11-11T04:15:56.942Z,0
2018-11-11T04:16:56.934Z,0
2018-11-11T04:17:56.907Z,0
2018-11-11T04:18:56.647Z,0
2018-11-11T04:19:56.636Z,0
2018-11-11T04:20:56.870Z,0
2018-11-11T04:21:56.866Z,0
2018-11-11T04:22:56.845Z,0
2018-11-11T04:23:56.823Z,0
2018-11-11T04:24:56.565Z,0
2018-11-11T04:25:56.549Z,0
2018-11-11T04:26:56.801Z,0
2018-11-11T04:27:56.776Z,0
2018-11-11T04:28:56.761Z,0
2018-11-11T04:29:56.248Z,0
2018-11-11T04:30:56.485Z,0
2018-11-11T04:31:56.476Z,0
2018-11-11T04:32:56.709Z,0
2018-11-11T04:33:56.689Z,0
2018-11-11T04:34:55.925Z,0
2018-11-11T04:35:56.665Z,0
2018-11-11T04:36:56.660Z,0
2018-11-11T04:37:56.135Z,0
2018-11-11T04:38:56.445Z,0
2018-11-11T04:39:56.370Z,0
2018-11-11T04:40:56.609Z,0
2018-11-11T04:41:56.338Z,0
2018-11-11T04:42:56.594Z,0
2018-11-11T04:43:56.565Z,0
2018-11-11T04:44:56.319Z,0
2018-11-11T04:45:56.286Z,0
2018-11-11T04:46:56.540Z,0
2018-11-11T04:47:56.511Z,0
2018-11-11T04:48:55.989Z,0
2018-11-11T04:49:56.244Z,0
2018-11-11T04:50:56.212Z,0
2018-11-11T04:51:56.464Z,0
2018-11-11T04:52:56.194Z,0
2018-11-11T04:53:56.180Z,0
2018-11-11T04:54:56.412Z,0
2018-11-11T04:55:56.400Z,0
2018-11-11T04:56:56.395Z,0
2018-11-11T04:57:56.381Z,0
2018-11-11T04:58:56.362Z,0
2018-11-11T04:59:56.350Z,0
2018-11-11T05:00:56.330Z,0
2018-11-11T05:01:56.073Z,0
2018-11-11T05:02:56.312Z,0
2018-11-11T05:03:56.037Z,0
2018-11-11T05:04:55.952Z,0
2018-11-11T05:05:56.017Z,0
2018-11-11T05:06:56.000Z,0
2018-11-11T05:07:56.235Z,0
2018-11-11T05:08:55.719Z,0
2018-11-11T05:09:55.709Z,0
2018-11-11T05:10:55.947Z,0
2018-11-11T05:11:56.190Z,0
2018-11-11T05:12:56.173Z,0
2018-11-11T05:13:55.903Z,0
2018-11-11T05:14:56.140Z,0
2018-11-11T05:15:55.621Z,0
2018-11-11T05:16:56.118Z,0
2018-11-11T05:17:56.102Z,0
2018-11-11T05:18:55.840Z,0
2018-11-11T05:19:56.076Z,0
2018-11-11T05:20:56.063Z,0
2018-11-11T05:21:56.416Z,0
2018-11-11T05:22:55.797Z,0
2018-11-11T05:23:56.017Z,0
2018-11-11T05:24:55.508Z,0
2018-11-11T05:25:55.742Z,0
2018-11-11T05:26:55.735Z,0
2018-11-11T05:27:55.970Z,0
2018-11-11T05:28:55.700Z,0
2018-11-11T05:29:55.689Z,0
2018-11-11T05:30:55.811Z,0
2018-11-11T05:31:55.911Z,0
2018-11-11T05:32:55.901Z,0
2018-11-11T05:33:55.635Z,0
2018-11-11T05:34:55.618Z,0
2018-11-11T05:35:55.864Z,0
2018-11-11T05:36:55.836Z,0
2018-11-11T05:37:55.073Z,0
2018-11-11T05:38:55.815Z,0
2018-11-11T05:39:55.803Z,0
2018-11-11T05:40:55.541Z,0
2018-11-11T05:41:55.779Z,0
2018-11-11T05:42:55.770Z,0
2018-11-11T05:43:55.755Z,0
2018-11-11T05:44:55.488Z,0
2018-11-11T05:45:55.473Z,0
2018-11-11T05:46:55.455Z,0
2018-11-11T05:47:55.441Z,0
2018-11-11T05:48:55.684Z,0
2018-11-11T05:49:55.690Z,0
2018-11-11T05:50:55.648Z,0
2018-11-11T05:51:55.640Z,4
2018-11-11T05:52:55.381Z,0
2018-11-11T05:53:55.360Z,4
2018-11-11T05:54:55.347Z,4
2018-11-11T05:55:55.336Z,4
2018-11-11T05:56:55.570Z,4
2018-11-11T05:57:55.566Z,4
2018-11-11T05:58:55.043Z,8
2018-11-11T05:59:55.528Z,8
2018-11-11T06:00:55.275Z,8
2018-11-11T06:01:55.251Z,12
2018-11-11T06:02:55.494Z,8
2018-11-11T06:03:55.228Z,8
2018-11-11T06:04:55.215Z,12
2018-11-11T06:05:54.948Z,16
2018-11-11T06:06:55.191Z,20
2018-11-11T06:07:54.926Z,16
2018-11-11T06:08:55.165Z,20
2018-11-11T06:09:55.401Z,20
2018-11-11T06:10:55.130Z,28
2018-11-11T06:11:55.371Z,32
2018-11-11T06:12:55.353Z,36
2018-11-11T06:13:55.093Z,40
2018-11-11T06:14:55.338Z,40
2018-11-11T06:15:55.316Z,40
2018-11-11T06:16:55.304Z,44
2018-11-11T06:17:55.331Z,48
2018-11-11T06:18:55.021Z,56
2018-11-11T06:19:55.006Z,64
2018-11-11T06:20:54.997Z,76
2018-11-11T06:21:55.239Z,84
2018-11-11T06:22:55.223Z,96
2018-11-11T06:23:54.949Z,108
2018-11-11T06:24:55.219Z,128
2018-11-11T06:25:55.193Z,132
2018-11-11T06:26:55.168Z,144
2018-11-11T06:27:55.171Z,156
2018-11-11T06:28:54.888Z,176
2018-11-11T06:29:54.872Z,204
2018-11-11T06:30:54.863Z,236
2018-11-11T06:31:55.114Z,256
2018-11-11T06:32:55.093Z,268
2018-11-11T06:33:54.837Z,288
2018-11-11T06:34:54.818Z,324
2018-11-11T06:35:55.044Z,364
2018-11-11T06:36:55.029Z,392
2018-11-11T06:37:55.020Z,408
2018-11-11T06:38:54.754Z,432
2018-11-11T06:39:54.740Z,460
2018-11-11T06:40:54.977Z,496
2018-11-11T06:41:54.717Z,524
2018-11-11T06:42:54.697Z,500
2018-11-11T06:43:54.938Z,476
2018-11-11T06:44:54.675Z,468
2018-11-11T06:45:54.657Z,492
2018-11-11T06:46:54.396Z,524
2018-11-11T06:47:55.064Z,568
2018-11-11T06:48:54.871Z,600
2018-11-11T06:49:54.860Z,588
2018-11-11T06:50:54.587Z,584
2018-11-11T06:51:54.572Z,592
2018-11-11T06:52:54.566Z,636
2018-11-11T06:53:54.809Z,692
2018-11-11T06:54:54.284Z,704
2018-11-11T06:55:54.268Z,676
2018-11-11T06:56:54.761Z,628
2018-11-11T06:57:54.918Z,596
2018-11-11T06:58:54.734Z,580
2018-11-11T06:59:54.465Z,592
2018-11-11T07:00:54.208Z,632
2018-11-11T07:01:54.234Z,656
2018-11-11T07:02:54.427Z,664
2018-11-11T07:03:54.456Z,676
2018-11-11T07:04:54.648Z,700
2018-11-11T07:05:54.389Z,720
2018-11-11T07:06:54.373Z,724
2018-11-11T07:07:54.368Z,728
2018-11-11T07:08:54.092Z,752
2018-11-11T07:09:53.835Z,788
2018-11-11T07:10:54.320Z,820
2018-11-11T07:11:54.306Z,848
2018-11-11T07:12:54.542Z,872
2018-11-11T07:13:54.494Z,900
2018-11-11T07:14:54.268Z,924
2018-11-11T07:15:54.255Z,972
2018-11-11T07:16:54.499Z,1116
2018-11-11T07:17:54.490Z,1220
2018-11-11T07:18:54.469Z,1280
2018-11-11T07:19:54.447Z,1316
2018-11-11T07:20:54.449Z,1272
2018-11-11T07:21:54.171Z,1236
2018-11-11T07:22:54.409Z,1260
2018-11-11T07:23:54.394Z,1348
2018-11-11T07:24:54.387Z,1392
2018-11-11T07:25:54.118Z,1480
2018-11-11T07:26:54.356Z,1648
2018-11-11T07:27:54.090Z,1724
2018-11-11T07:28:54.080Z,1840
2018-11-11T07:29:54.071Z,1856
2018-11-11T07:30:53.795Z,1808
2018-11-11T07:31:54.036Z,1784
2018-11-11T07:32:54.270Z,1700
2018-11-11T07:33:54.263Z,1624
2018-11-11T07:34:53.996Z,1584
2018-11-11T07:35:54.151Z,1576
2018-11-11T07:36:54.229Z,1648
2018-11-11T07:37:54.227Z,1720
2018-11-11T07:38:54.193Z,1780
2018-11-11T07:39:53.931Z,1804
2018-11-11T07:40:54.167Z,1880
2018-11-11T07:41:53.901Z,1904
2018-11-11T07:42:54.153Z,1756
2018-11-11T07:43:54.124Z,1644
2018-11-11T07:44:53.859Z,1564
2018-11-11T07:45:53.849Z,1540
2018-11-11T07:46:53.841Z,1536
2018-11-11T07:47:54.033Z,1552
2018-11-11T07:48:53.809Z,1548
2018-11-11T07:49:53.540Z,1556
2018-11-11T07:50:53.776Z,1584
2018-11-11T07:51:54.220Z,1708
2018-11-11T07:52:54.001Z,2060
2018-11-11T07:53:53.989Z,2132
2018-11-11T07:54:54.175Z,1884
2018-11-11T07:55:53.963Z,1732
2018-11-11T07:56:53.944Z,1668
2018-11-11T07:57:53.429Z,1664
2018-11-11T07:58:53.674Z,1720
2018-11-11T07:59:53.658Z,1760
2018-11-11T08:00:53.895Z,1736
2018-11-11T08:01:54.419Z,1688
2018-11-11T08:02:53.872Z,1652
2018-11-11T08:03:53.355Z,1644
2018-11-11T08:04:53.867Z,1644
2018-11-11T08:05:53.838Z,1648
2018-11-11T08:06:53.566Z,1652
2018-11-11T08:07:53.555Z,1652
2018-11-11T08:08:53.547Z,1652
2018-11-11T08:09:53.777Z,1664
2018-11-11T08:10:53.830Z,1660
2018-11-11T08:11:53.761Z,1672
2018-11-11T08:12:53.762Z,1672
2018-11-11T08:13:53.486Z,1668
2018-11-11T08:14:53.724Z,1676
2018-11-11T08:15:53.191Z,1696
2018-11-11T08:16:54.236Z,1692
2018-11-11T08:17:53.417Z,1704
2018-11-11T08:18:53.667Z,1704
2018-11-11T08:19:53.643Z,1752
2018-11-11T08:20:53.633Z,1824
2018-11-11T08:21:53.360Z,1888
2018-11-11T08:22:53.603Z,1888
2018-11-11T08:23:53.590Z,2012
2018-11-11T08:24:53.325Z,2284
2018-11-11T08:25:53.561Z,2512
2018-11-11T08:26:53.296Z,2552
2018-11-11T08:27:53.552Z,2628
2018-11-11T08:28:53.524Z,2864
2018-11-11T08:29:53.259Z,3156
2018-11-11T08:30:53.253Z,3480
2018-11-11T08:31:53.230Z,3724
2018-11-11T08:32:53.469Z,3816
2018-11-11T08:33:53.461Z,4016
2018-11-11T08:34:52.942Z,4304
2018-11-11T08:35:53.437Z,4496
2018-11-11T08:36:53.418Z,4664
2018-11-11T08:37:53.151Z,5000
2018-11-11T08:38:53.391Z,5372
2018-11-11T08:39:53.381Z,5348
2018-11-11T08:40:53.129Z,5544
2018-11-11T08:41:53.354Z,6220
2018-11-11T08:42:52.846Z,6544
2018-11-11T08:43:52.822Z,6500
2018-11-11T08:44:53.313Z,6244
2018-11-11T08:45:53.296Z,5980
2018-11-11T08:46:53.043Z,5716
2018-11-11T08:47:53.281Z,5552
2018-11-11T08:48:53.276Z,5392
2018-11-11T08:49:53.251Z,5504
2018-11-11T08:50:52.737Z,5808
2018-11-11T08:51:52.976Z,5844
2018-11-11T08:52:53.224Z,5840
2018-11-11T08:53:52.700Z,5520
2018-11-11T08:54:52.944Z,5536
2018-11-11T08:55:52.684Z,5564
2018-11-11T08:56:53.169Z,5600
2018-11-11T08:57:52.964Z,5260
2018-11-11T08:58:52.898Z,5012
2018-11-11T08:59:52.887Z,5036
2018-11-11T09:00:52.880Z,5456
2018-11-11T09:01:53.123Z,6068
2018-11-11T09:02:53.097Z,6232
2018-11-11T09:03:52.837Z,6176
2018-11-11T09:04:53.455Z,5688
2018-11-11T09:05:52.811Z,5784
2018-11-11T09:06:53.048Z,5708
2018-11-11T09:07:52.809Z,4848
2018-11-11T09:08:53.031Z,5140
2018-11-11T09:09:52.264Z,5704
2018-11-11T09:10:53.014Z,5952
2018-11-11T09:11:52.753Z,6164
2018-11-11T09:12:52.477Z,5892
2018-11-11T09:13:52.974Z,5580
2018-11-11T09:14:52.706Z,4696
2018-11-11T09:15:52.952Z,4248
2018-11-11T09:16:52.939Z,4128
2018-11-11T09:17:52.677Z,4512
2018-11-11T09:18:52.927Z,5088
2018-11-11T09:19:52.401Z,5364
2018-11-11T09:20:52.641Z,5528
2018-11-11T09:21:52.898Z,5688
2018-11-11T09:22:52.619Z,6496
2018-11-11T09:23:52.931Z,6320
2018-11-11T09:24:52.599Z,5636
2018-11-11T09:25:52.590Z,4728
2018-11-11T09:26:52.833Z,3728
2018-11-11T09:27:52.563Z,3256
2018-11-11T09:28:52.556Z,3080
2018-11-11T09:29:53.298Z,2992
2018-11-11T09:30:52.785Z,3036
2018-11-11T09:31:52.525Z,3052
2018-11-11T09:32:52.509Z,3144
2018-11-11T09:33:52.753Z,3764
2018-11-11T09:34:52.492Z,4336
2018-11-11T09:35:52.225Z,4360
2018-11-11T09:36:52.480Z,4212
2018-11-11T09:37:52.458Z,4088
2018-11-11T09:38:52.548Z,4112
2018-11-11T09:39:52.434Z,4140
2018-11-11T09:40:52.428Z,4116
2018-11-11T09:41:52.415Z,4064
2018-11-11T09:42:52.400Z,4276
2018-11-11T09:43:52.392Z,4740
2018-11-11T09:44:52.377Z,5016
2018-11-11T09:45:52.369Z,5204
2018-11-11T09:46:52.363Z,5324
2018-11-11T09:47:52.927Z,5556
2018-11-11T09:48:52.336Z,5760
2018-11-11T09:49:52.072Z,6240
2018-11-11T09:50:52.577Z,6560
2018-11-11T09:51:52.627Z,6396
2018-11-11T09:52:53.128Z,6096
2018-11-11T09:53:52.657Z,5836
2018-11-11T09:54:52.286Z,5848
2018-11-11T09:55:52.292Z,5924
2018-11-11T09:56:52.269Z,5876
2018-11-11T09:57:52.255Z,5668
2018-11-11T09:58:53.119Z,5596
2018-11-11T09:59:52.617Z,5752
2018-11-11T10:00:52.468Z,5472
2018-11-11T10:01:52.198Z,5160
2018-11-11T10:02:51.942Z,5620
2018-11-11T10:03:52.187Z,6044
2018-11-11T10:04:52.616Z,6440
2018-11-11T10:05:52.440Z,6548
2018-11-11T10:06:52.796Z,6336
2018-11-11T10:07:52.140Z,6368
2018-11-11T10:08:52.390Z,6876
2018-11-11T10:09:52.121Z,7340
2018-11-11T10:10:52.368Z,7256
2018-11-11T10:11:52.102Z,6152
2018-11-11T10:12:52.664Z,4688
2018-11-11T10:13:52.338Z,3448
2018-11-11T10:14:52.072Z,3080
2018-11-11T10:15:52.066Z,2664
2018-11-11T10:16:51.799Z,2016
2018-11-11T10:17:52.045Z,1680
2018-11-11T10:18:52.099Z,1852
2018-11-11T10:19:52.274Z,2540
2018-11-11T10:20:52.817Z,3728
2018-11-11T10:21:52.002Z,4900
2018-11-11T10:22:51.742Z,4944
2018-11-11T10:23:52.239Z,6128
2018-11-11T10:24:52.222Z,6448
2018-11-11T10:25:52.218Z,6620
2018-11-11T10:26:52.205Z,5464
2018-11-11T10:27:51.687Z,4296
2018-11-11T10:28:51.935Z,3928
2018-11-11T10:29:52.297Z,3588
2018-11-11T10:30:51.921Z,3700
2018-11-11T10:31:52.155Z,4224
2018-11-11T10:32:51.893Z,4428
2018-11-11T10:33:52.145Z,5612
2018-11-11T10:34:51.869Z,6336
2018-11-11T10:35:52.118Z,6788
2018-11-11T10:36:52.103Z,7984
2018-11-11T10:37:52.099Z,7860
2018-11-11T10:38:52.090Z,7360
2018-11-11T10:39:52.079Z,8516
2018-11-11T10:40:51.812Z,9916
2018-11-11T10:41:51.804Z,8600
2018-11-11T10:42:51.793Z,8036
2018-11-11T10:43:51.778Z,9100
2018-11-11T10:44:51.517Z,6908
2018-11-11T10:45:52.022Z,7508
2018-11-11T10:46:52.215Z,6900
2018-11-11T10:47:51.997Z,4096
2018-11-11T10:48:51.989Z,4084
2018-11-11T10:49:51.723Z,5272
2018-11-11T10:50:51.711Z,5532
2018-11-11T10:51:51.705Z,6296
2018-11-11T10:52:51.978Z,6468
2018-11-11T10:53:51.940Z,6716
2018-11-11T10:54:51.427Z,6320
2018-11-11T10:55:51.930Z,7084
2018-11-11T10:56:51.907Z,7640
2018-11-11T10:57:51.911Z,7276
2018-11-11T10:58:52.041Z,5972
2018-11-11T10:59:51.380Z,4936
2018-11-11T11:00:51.370Z,3104
2018-11-11T11:01:51.869Z,2644
2018-11-11T11:02:51.605Z,2888
2018-11-11T11:03:51.348Z,2564
2018-11-11T11:04:51.844Z,2388
2018-11-11T11:05:51.692Z,2328
2018-11-11T11:06:51.826Z,2420
2018-11-11T11:07:51.306Z,2312
2018-11-11T11:08:51.553Z,2288
2018-11-11T11:09:51.545Z,2336
2018-11-11T11:10:51.783Z,2652
2018-11-11T11:11:51.780Z,2628
2018-11-11T11:12:51.772Z,2796
2018-11-11T11:13:51.925Z,3040
2018-11-11T11:14:51.499Z,3396
2018-11-11T11:15:51.496Z,4492
2018-11-11T11:16:51.728Z,5668
2018-11-11T11:17:51.464Z,4888
2018-11-11T11:18:51.715Z,3004
2018-11-11T11:19:51.459Z,2340
2018-11-11T11:20:51.439Z,2220
2018-11-11T11:21:51.435Z,2248
2018-11-11T11:22:51.200Z,2260
2018-11-11T11:23:51.671Z,2308
2018-11-11T11:24:51.659Z,2636
2018-11-11T11:25:51.856Z,3752
2018-11-11T11:26:51.388Z,3316
2018-11-11T11:27:51.378Z,3944
2018-11-11T11:28:51.617Z,3608
2018-11-11T11:29:51.355Z,4212
2018-11-11T11:30:51.364Z,3228
2018-11-11T11:31:51.836Z,3696
2018-11-11T11:32:51.149Z,2880
2018-11-11T11:33:51.655Z,2420
2018-11-11T11:34:51.315Z,3412
2018-11-11T11:35:52.108Z,3760
2018-11-11T11:36:51.295Z,3348
2018-11-11T11:37:51.037Z,3872
2018-11-11T11:38:51.276Z,6000
2018-11-11T11:39:51.518Z,5120
2018-11-11T11:40:51.263Z,4968
2018-11-11T11:41:51.249Z,5480
2018-11-11T11:42:51.240Z,5500
2018-11-11T11:43:51.602Z,5976
2018-11-11T11:44:51.275Z,6248
2018-11-11T11:45:51.468Z,6596
2018-11-11T11:46:51.515Z,7112
2018-11-11T11:47:51.498Z,6424
2018-11-11T11:48:50.939Z,6508
2018-11-11T11:49:51.393Z,4160
2018-11-11T11:50:51.428Z,3280
2018-11-11T11:51:51.468Z,3196
2018-11-11T11:52:51.664Z,2692
2018-11-11T11:53:51.402Z,3600
2018-11-11T11:54:51.137Z,2520
2018-11-11T11:55:51.386Z,3228
2018-11-11T11:56:51.372Z,3592
2018-11-11T11:57:51.401Z,2820
2018-11-11T11:58:51.097Z,2156
2018-11-11T11:59:51.346Z,2060
2018-11-11T12:00:51.081Z,2036
2018-11-11T12:01:51.371Z,2276
2018-11-11T12:02:51.069Z,2192
2018-11-11T12:03:51.064Z,1988
2018-11-11T12:04:51.052Z,1976
2018-11-11T12:05:51.042Z,1976
2018-11-11T12:06:51.300Z,2064
2018-11-11T12:07:51.275Z,2036
2018-11-11T12:08:52.173Z,1996
2018-11-11T12:09:51.266Z,2004
2018-11-11T12:10:50.755Z,2024
2018-11-11T12:11:51.244Z,1976
2018-11-11T12:12:51.237Z,2040
2018-11-11T12:13:51.221Z,2200
2018-11-11T12:14:51.215Z,2596
2018-11-11T12:15:50.955Z,3080
2018-11-11T12:16:51.724Z,2844
2018-11-11T12:17:50.681Z,2636
2018-11-11T12:18:50.925Z,2892
2018-11-11T12:19:51.174Z,2500
2018-11-11T12:20:50.913Z,2952
2018-11-11T12:21:50.901Z,3352
2018-11-11T12:22:51.142Z,4536
2018-11-11T12:23:51.131Z,3024
2018-11-11T12:24:51.134Z,2388
2018-11-11T12:25:51.123Z,2056
2018-11-11T12:26:50.861Z,1944
2018-11-11T12:27:51.104Z,1928
2018-11-11T12:28:51.096Z,1916
2018-11-11T12:29:51.078Z,2140
2018-11-11T12:30:51.575Z,1896
2018-11-11T12:31:50.813Z,1880
2018-11-11T12:32:51.055Z,1868
2018-11-11T12:33:50.289Z,1872
2018-11-11T12:34:51.069Z,1860
2018-11-11T12:35:51.031Z,1860
2018-11-11T12:36:51.028Z,1848
2018-11-11T12:37:51.013Z,1848
2018-11-11T12:38:50.816Z,1848
2018-11-11T12:39:51.889Z,1852
2018-11-11T12:40:50.993Z,1848
2018-11-11T12:41:50.977Z,1852
2018-11-11T12:42:50.970Z,1864
2018-11-11T12:43:50.454Z,1892
2018-11-11T12:44:51.403Z,1844
2018-11-11T12:45:50.691Z,1836
2018-11-11T12:46:51.193Z,1828
2018-11-11T12:47:50.931Z,1824
2018-11-11T12:48:50.777Z,1820
2018-11-11T12:49:50.911Z,1820
2018-11-11T12:50:50.393Z,1812
2018-11-11T12:51:50.396Z,1808
2018-11-11T12:52:50.884Z,1804
2018-11-11T12:53:50.867Z,1804
2018-11-11T12:54:50.455Z,1804
2018-11-11T12:55:50.602Z,1804
2018-11-11T12:56:50.593Z,1804
2018-11-11T12:57:50.579Z,1796
2018-11-11T12:58:50.830Z,1796
2018-11-11T12:59:50.817Z,1824
2018-11-11T13:00:50.992Z,1812
2018-11-11T13:01:50.562Z,1808
2018-11-11T13:02:50.285Z,1796
2018-11-11T13:03:50.523Z,1788
2018-11-11T13:04:50.922Z,1784
2018-11-11T13:05:50.763Z,1796
2018-11-11T13:06:50.754Z,1780
2018-11-11T13:07:50.758Z,1776
2018-11-11T13:08:50.235Z,1776
2018-11-11T13:09:50.474Z,1764
2018-11-11T13:10:50.468Z,1752
2018-11-11T13:11:51.163Z,1748
2018-11-11T13:12:50.200Z,1748
2018-11-11T13:13:50.819Z,1736
2018-11-11T13:14:50.683Z,1736
2018-11-11T13:15:50.668Z,1732
2018-11-11T13:16:50.408Z,1732
2018-11-11T13:17:50.663Z,1728
2018-11-11T13:18:50.396Z,1724
2018-11-11T13:19:50.679Z,1720
2018-11-11T13:20:50.624Z,1708
2018-11-11T13:21:50.512Z,1700
2018-11-11T13:22:51.029Z,1692
2018-11-11T13:23:50.344Z,1692
2018-11-11T13:24:50.586Z,1680
2018-11-11T13:25:50.073Z,1676
2018-11-11T13:26:50.062Z,1668
2018-11-11T13:27:50.561Z,1668
2018-11-11T13:28:50.561Z,1664
2018-11-11T13:29:50.538Z,1656
2018-11-11T13:30:50.286Z,1648
2018-11-11T13:31:50.738Z,1640
2018-11-11T13:32:50.010Z,1632
2018-11-11T13:33:49.996Z,1624
2018-11-11T13:34:50.497Z,1624
2018-11-11T13:35:50.236Z,1620
2018-11-11T13:36:49.978Z,1612
2018-11-11T13:37:50.406Z,1608
2018-11-11T13:38:50.453Z,1604
2018-11-11T13:39:50.456Z,1600
2018-11-11T13:40:50.452Z,1592
2018-11-11T13:41:50.175Z,1592
2018-11-11T13:42:50.426Z,1584
2018-11-11T13:43:50.413Z,1576
2018-11-11T13:44:50.410Z,1568
2018-11-11T13:45:50.391Z,1564
2018-11-11T13:46:50.650Z,1560
2018-11-11T13:47:49.870Z,1552
2018-11-11T13:48:50.358Z,1548
2018-11-11T13:49:49.846Z,1544
2018-11-11T13:50:50.096Z,1536
2018-11-11T13:51:49.885Z,1532
2018-11-11T13:52:50.069Z,1528
2018-11-11T13:53:50.320Z,1524
2018-11-11T13:54:50.364Z,1516
2018-11-11T13:55:50.154Z,1512
2018-11-11T13:56:50.036Z,1508